createdAt,value
2018-11-20T00:00:26.056Z,84.10
2018-11-20T00:03:13.010Z,84.30
2018-11-20T00:05:58.929Z,84.30
2018-11-20T00:08:40.482Z,84.00
2018-11-20T00:11:34.563Z,83.90
2018-11-20T00:14:21.434Z,84.10
2018-11-20T00:17:07.683Z,84.30
2018-11-20T00:19:58.846Z,84.40
2018-11-20T00:23:02.057Z,84.30
2018-11-20T00:25:48.824Z,84.30
2018-11-20T00:28:35.711Z,85.00
2018-11-20T00:31:23.166Z,84.80
2018-11-20T00:34:14.047Z,84.50
2018-11-20T00:36:52.111Z,84.40
2018-11-20T00:39:40.630Z,84.60
2018-11-20T00:42:18.506Z,84.70
2018-11-20T00:45:01.466Z,84.80
2018-11-20T00:47:48.524Z,84.70
2018-11-20T00:50:28.113Z,84.90
2018-11-20T00:53:14.713Z,84.70
2018-11-20T00:56:33.592Z,84.70
2018-11-20T00:59:21.876Z,84.80
2018-11-20T01:02:16.001Z,84.80
2018-11-20T01:05:03.997Z,84.90
2018-11-20T01:07:50.716Z,84.80
2018-11-20T01:10:37.451Z,84.90
2018-11-20T01:13:24.428Z,84.90
2018-11-20T01:16:22.061Z,85.00
2018-11-20T01:19:03.240Z,85.10
2018-11-20T01:21:52.813Z,85.30
2018-11-20T01:24:39.605Z,85.30
2018-11-20T01:27:27.870Z,85.40
2018-11-20T01:30:16.160Z,85.50
2018-11-20T01:33:04.407Z,85.60
2018-11-20T01:35:51.469Z,85.40
2018-11-20T01:38:29.059Z,85.20
2018-11-20T01:41:19.180Z,85.40
2018-11-20T01:44:06.309Z,85.30
2018-11-20T01:46:47.330Z,85.30
2018-11-20T01:49:41.384Z,85.70
2018-11-20T01:52:30.042Z,85.70
2018-11-20T01:55:09.639Z,85.60
2018-11-20T01:58:09.905Z,85.80
2018-11-20T02:00:56.964Z,85.50
2018-11-20T02:03:47.780Z,85.50
2018-11-20T02:06:42.589Z,85.40
2018-11-20T02:09:29.556Z,85.70
2018-11-20T02:12:16.679Z,85.80
2018-11-20T02:15:03.414Z,85.50
2018-11-20T02:17:57.117Z,86.20
2018-11-20T02:20:54.430Z,85.60
2018-11-20T02:23:41.140Z,85.60
2018-11-20T02:26:35.172Z,85.80
2018-11-20T02:29:22.492Z,86.00
2018-11-20T02:32:25.760Z,85.90
2018-11-20T02:35:26.554Z,86.00
2018-11-20T02:38:22.217Z,86.10
2018-11-20T02:41:16.081Z,85.70
2018-11-20T02:44:05.746Z,86.10
2018-11-20T02:46:52.816Z,86.30
2018-11-20T02:49:30.754Z,86.60
2018-11-20T02:52:13.913Z,86.80
2018-11-20T02:55:00.819Z,87.00
2018-11-20T02:57:49.196Z,86.90
2018-11-20T03:00:35.872Z,87.20
2018-11-20T03:03:22.753Z,87.20
2018-11-20T03:06:09.764Z,87.40
2018-11-20T03:09:16.386Z,87.60
2018-11-20T03:11:57.896Z,87.80
2018-11-20T03:14:45.379Z,87.40
2018-11-20T03:17:31.608Z,87.60
2018-11-20T03:20:14.601Z,87.50
2018-11-20T03:23:05.835Z,87.10
2018-11-20T03:26:13.430Z,86.90
2018-11-20T03:29:21.649Z,86.40
2018-11-20T03:32:08.371Z,86.30
2018-11-20T03:35:11.745Z,86.60
2018-11-20T03:38:18.157Z,86.50
2018-11-20T03:41:12.811Z,86.40
2018-11-20T03:43:59.371Z,86.70
2018-11-20T03:46:50.320Z,87.00
2018-11-20T03:49:43.380Z,86.90
2018-11-20T03:52:23.758Z,86.70
2018-11-20T03:55:01.232Z,86.50
2018-11-20T03:57:48.427Z,86.40
2018-11-20T04:00:36.696Z,86.30
2018-11-20T04:03:12.380Z,86.40
2018-11-20T04:06:06.918Z,86.50
2018-11-20T04:08:53.909Z,87.00
2018-11-20T04:11:54.632Z,86.60
2018-11-20T04:14:51.980Z,86.70
2018-11-20T04:17:52.293Z,86.80
2018-11-20T04:20:38.883Z,87.10
2018-11-20T04:23:27.172Z,86.90
2018-11-20T04:26:15.446Z,87.00
2018-11-20T04:28:51.340Z,86.80
2018-11-20T04:32:16.368Z,87.10
2018-11-20T04:35:12.303Z,87.20
2018-11-20T04:37:59.276Z,87.20
2018-11-20T04:40:56.506Z,87.20
2018-11-20T04:43:56.741Z,87.20
2018-11-20T04:46:57.123Z,87.40
2018-11-20T04:49:41.327Z,87.60
2018-11-20T04:52:32.174Z,87.50
2018-11-20T04:55:23.053Z,87.40
2018-11-20T04:57:59.890Z,87.70
2018-11-20T05:00:59.882Z,87.80
2018-11-20T05:03:57.004Z,87.80
2018-11-20T05:06:44.280Z,87.80
2018-11-20T05:09:31.276Z,87.70
2018-11-20T05:12:24.596Z,87.80
2018-11-20T05:15:21.937Z,88.10
2018-11-20T05:18:16.715Z,88.50
2018-11-20T05:21:00.308Z,88.70
2018-11-20T05:23:48.904Z,88.60
2018-11-20T05:26:29.516Z,88.30
2018-11-20T05:29:20.822Z,88.20
2018-11-20T05:32:07.742Z,88.10
2018-11-20T05:34:56.034Z,88.00
2018-11-20T05:37:40.527Z,88.20
2018-11-20T05:40:28.931Z,88.40
2018-11-20T05:43:32.110Z,88.70
2018-11-20T05:46:18.945Z,89.20
2018-11-20T05:49:03.881Z,89.10
2018-11-20T05:52:07.145Z,89.00
2018-11-20T05:55:02.396Z,88.90
2018-11-20T05:57:48.871Z,89.10
2018-11-20T06:00:31.650Z,89.20
2018-11-20T06:03:17.833Z,89.40
2018-11-20T06:06:04.824Z,89.60
2018-11-20T06:08:55.668Z,89.80
2018-11-20T06:11:45.842Z,89.70
2018-11-20T06:14:43.351Z,89.70
2018-11-20T06:17:34.804Z,89.60
2018-11-20T06:20:26.316Z,90.00
2018-11-20T06:23:17.769Z,89.70
2018-11-20T06:26:18.006Z,90.00
2018-11-20T06:29:12.519Z,90.00
2018-11-20T06:31:53.228Z,89.90
2018-11-20T06:34:41.665Z,89.80
2018-11-20T06:37:29.004Z,89.80
2018-11-20T06:40:17.250Z,90.00
2018-11-20T06:43:04.212Z,90.10
2018-11-20T06:45:55.520Z,90.20
2018-11-20T06:48:44.210Z,90.20
2018-11-20T06:51:25.623Z,90.40
2018-11-20T06:54:19.890Z,90.20
2018-11-20T06:57:00.566Z,90.30
2018-11-20T06:59:47.486Z,90.20
2018-11-20T07:02:44.529Z,90.00
2018-11-20T07:05:47.681Z,90.10
2018-11-20T07:08:34.741Z,90.30
2018-11-20T07:11:28.111Z,90.40
2018-11-20T07:14:18.914Z,90.40
2018-11-20T07:17:16.272Z,90.50
2018-11-20T07:20:10.114Z,90.60
2018-11-20T07:22:55.433Z,90.40
2018-11-20T07:26:36.748Z,90.50
2018-11-20T07:29:22.956Z,90.30
2018-11-20T07:32:13.304Z,90.10
2018-11-20T07:35:00.821Z,90.10
2018-11-20T07:37:51.224Z,90.10
2018-11-20T07:40:35.877Z,90.30
2018-11-20T07:43:10.220Z,90.20
2018-11-20T07:46:03.331Z,90.10
2018-11-20T07:48:50.792Z,90.20
2018-11-20T07:51:29.481Z,90.20
2018-11-20T07:54:16.925Z,90.20
2018-11-20T07:57:19.747Z,90.10
2018-11-20T08:00:22.549Z,90.20
2018-11-20T08:03:14.741Z,90.20
2018-11-20T08:06:02.189Z,90.10
2018-11-20T08:08:49.320Z,90.10
2018-11-20T08:11:55.165Z,90.10
2018-11-20T08:14:55.211Z,89.90
2018-11-20T08:17:42.978Z,90.00
2018-11-20T08:20:29.050Z,90.20
2018-11-20T08:23:16.501Z,89.70
2018-11-20T08:26:10.100Z,89.80
2018-11-20T08:29:03.339Z,89.70
2018-11-20T08:31:51.869Z,89.80
2018-11-20T08:34:51.622Z,89.00
2018-11-20T08:37:27.141Z,88.90
2018-11-20T08:40:23.365Z,88.70
2018-11-20T08:43:10.276Z,88.00
2018-11-20T08:45:56.433Z,88.20
2018-11-20T08:48:43.932Z,87.80
2018-11-20T08:51:28.079Z,87.60
2018-11-20T08:54:13.967Z,87.40
2018-11-20T08:57:00.248Z,87.00
2018-11-20T08:59:50.710Z,86.80
2018-11-20T09:02:44.243Z,86.40
2018-11-20T09:05:30.214Z,86.70
2018-11-20T09:08:16.569Z,86.90
2018-11-20T09:11:04.062Z,86.80
2018-11-20T09:13:55.365Z,86.50
2018-11-20T09:16:41.439Z,86.50
2018-11-20T09:19:43.650Z,86.30
2018-11-20T09:22:31.076Z,86.00
2018-11-20T09:25:17.302Z,86.50
2018-11-20T09:28:03.554Z,86.10
2018-11-20T09:30:53.809Z,85.20
2018-11-20T09:33:40.319Z,85.00
2018-11-20T09:36:26.572Z,84.70
2018-11-20T09:39:29.212Z,83.90
2018-11-20T09:42:16.663Z,83.40
2018-11-20T09:45:24.032Z,84.20
2018-11-20T09:48:03.411Z,83.70
2018-11-20T09:50:49.584Z,83.80
2018-11-20T09:53:35.843Z,83.80
2018-11-20T09:56:22.533Z,83.40
2018-11-20T09:59:10.078Z,83.80
2018-11-20T10:02:04.333Z,83.40
2018-11-20T10:04:50.686Z,83.40
2018-11-20T10:07:37.538Z,83.00
2018-11-20T10:10:25.191Z,82.90
2018-11-20T10:13:12.624Z,83.10
2018-11-20T10:16:06.206Z,82.90
2018-11-20T10:18:56.408Z,82.70
2018-11-20T10:21:49.746Z,82.60
2018-11-20T10:24:46.288Z,83.00
2018-11-20T10:27:32.379Z,82.70
2018-11-20T10:32:57.042Z,82.40
2018-11-20T10:35:38.655Z,82.60
2018-11-20T10:38:24.618Z,82.10
2018-11-20T10:41:18.393Z,82.20
2018-11-20T10:44:20.928Z,82.30
2018-11-20T10:47:11.118Z,82.20
2018-11-20T10:49:57.278Z,82.10
2018-11-20T10:52:40.532Z,81.60
2018-11-20T10:55:26.215Z,81.40
2018-11-20T10:58:07.907Z,80.70
2018-11-20T11:00:54.251Z,80.30
2018-11-20T11:03:27.079Z,80.10
2018-11-20T11:06:13.292Z,80.00
2018-11-20T11:08:59.342Z,79.80
2018-11-20T11:11:34.562Z,80.50
2018-11-20T11:14:25.514Z,81.20
2018-11-20T11:17:19.030Z,80.70
2018-11-20T11:20:15.603Z,80.90
2018-11-20T11:23:09.413Z,81.00
2018-11-20T11:26:12.035Z,81.40
2018-11-20T11:29:02.707Z,80.90
2018-11-20T11:31:54.639Z,81.40
2018-11-20T11:34:43.986Z,81.70
2018-11-20T11:37:37.292Z,82.10
2018-11-20T11:40:24.977Z,82.10
2018-11-20T11:43:11.634Z,81.90
2018-11-20T11:45:57.846Z,81.40
2018-11-20T11:48:48.260Z,81.30
2018-11-20T11:51:34.586Z,81.80
2018-11-20T11:54:24.277Z,82.30
2018-11-20T11:57:18.035Z,82.30
2018-11-20T12:00:05.544Z,82.60
2018-11-20T12:05:29.233Z,82.60
2018-11-20T12:08:17.498Z,82.60
2018-11-20T12:11:01.576Z,82.30
2018-11-20T12:13:43.326Z,82.10
2018-11-20T12:16:46.085Z,82.20
2018-11-20T12:19:32.244Z,82.40
2018-11-20T12:22:19.838Z,82.00
2018-11-20T12:25:07.292Z,82.10
2018-11-20T12:27:53.620Z,82.80
2018-11-20T12:30:34.815Z,81.70
2018-11-20T12:33:16.620Z,81.70
2018-11-20T12:36:05.183Z,81.50
2018-11-20T12:38:44.796Z,81.50
2018-11-20T12:41:21.583Z,81.70
2018-11-20T12:43:58.255Z,81.90
2018-11-20T12:46:45.735Z,82.10
2018-11-20T12:49:33.307Z,81.60
2018-11-20T12:52:24.019Z,81.40
2018-11-20T12:55:09.389Z,80.50
2018-11-20T12:58:02.791Z,80.40
2018-11-20T13:00:40.454Z,80.50
2018-11-20T13:03:28.715Z,80.40
2018-11-20T13:06:19.921Z,79.90
2018-11-20T13:09:06.123Z,80.40
2018-11-20T13:11:52.157Z,80.20
2018-11-20T13:14:39.615Z,80.20
2018-11-20T13:17:27.112Z,80.30
2018-11-20T13:20:13.231Z,80.30
2018-11-20T13:23:15.989Z,80.30
2018-11-20T13:26:02.715Z,80.20
2018-11-20T13:28:48.757Z,79.70
2018-11-20T13:31:42.031Z,80.10
2018-11-20T13:34:29.119Z,80.20
2018-11-20T13:37:24.963Z,80.30
2018-11-20T13:40:18.176Z,80.70
2018-11-20T13:43:09.442Z,80.40
2018-11-20T13:46:02.943Z,80.30
2018-11-20T13:48:52.831Z,80.00
2018-11-20T13:51:58.618Z,80.30
2018-11-20T13:54:45.332Z,80.20
2018-11-20T13:57:39.318Z,80.10
2018-11-20T14:00:25.548Z,81.20
2018-11-20T14:03:13.056Z,81.70
2018-11-20T14:05:59.271Z,81.10
2018-11-20T14:08:55.136Z,81.10
2018-11-20T14:11:36.442Z,81.50
2018-11-20T14:14:21.197Z,81.60
2018-11-20T14:17:07.233Z,81.60
2018-11-20T14:19:53.383Z,81.20
2018-11-20T14:22:43.535Z,81.40
2018-11-20T14:25:39.979Z,81.60
2018-11-20T14:28:23.616Z,81.50
2018-11-20T14:31:10.073Z,81.80
2018-11-20T14:34:12.820Z,82.20
2018-11-20T14:37:00.062Z,82.10
2018-11-20T14:39:46.972Z,82.40
2018-11-20T14:42:35.065Z,82.50
2018-11-20T14:45:21.638Z,82.10
2018-11-20T14:48:14.985Z,82.20
2018-11-20T14:51:05.400Z,82.40
2018-11-20T14:54:05.895Z,82.40
2018-11-20T14:56:59.194Z,82.20
2018-11-20T14:59:45.529Z,82.70
2018-11-20T15:02:35.601Z,82.90
2018-11-20T15:05:23.074Z,82.90
2018-11-20T15:08:09.072Z,82.50
2018-11-20T15:10:55.361Z,82.60
2018-11-20T15:13:48.244Z,82.50
2018-11-20T15:16:31.241Z,82.40
2018-11-20T15:19:18.750Z,82.70
2018-11-20T15:22:12.274Z,83.10
2018-11-20T15:24:51.091Z,83.00
2018-11-20T15:27:28.641Z,83.40
2018-11-20T15:30:16.063Z,83.20
2018-11-20T15:33:09.364Z,83.30
2018-11-20T15:36:15.211Z,84.70
2018-11-20T15:39:06.548Z,85.00
2018-11-20T15:41:50.801Z,85.80
2018-11-20T15:44:35.701Z,86.40
2018-11-20T15:47:23.431Z,86.70
2018-11-20T15:50:13.946Z,87.40
2018-11-20T15:52:52.183Z,87.60
2018-11-20T15:55:38.654Z,87.90
2018-11-20T15:58:32.281Z,87.90
2018-11-20T16:01:23.240Z,88.60
2018-11-20T16:04:05.458Z,88.70
2018-11-20T16:07:01.548Z,89.20
2018-11-20T16:09:42.573Z,89.50
2018-11-20T16:12:38.726Z,89.90
2018-11-20T16:15:32.249Z,90.20
2018-11-20T16:18:20.088Z,90.30
2018-11-20T16:21:25.987Z,90.40
2018-11-20T16:24:13.440Z,90.70
2018-11-20T16:27:00.961Z,91.00
2018-11-20T16:30:03.580Z,91.20
2018-11-20T16:32:45.574Z,91.60
2018-11-20T16:35:31.823Z,91.40
2018-11-20T16:38:25.765Z,91.40
2018-11-20T16:41:07.914Z,91.60
2018-11-20T16:44:01.673Z,91.80
2018-11-20T16:46:49.143Z,92.40
2018-11-20T16:49:45.575Z,93.00
2018-11-20T16:52:33.737Z,93.90
2018-11-20T16:55:24.121Z,94.30
2018-11-20T16:58:11.672Z,94.70
2018-11-20T17:01:08.211Z,95.30
2018-11-20T17:03:59.312Z,95.50
2018-11-20T17:06:55.784Z,95.50
2018-11-20T17:09:58.367Z,95.80
2018-11-20T17:12:33.173Z,96.20
2018-11-20T17:15:11.239Z,97.00
2018-11-20T17:18:11.055Z,97.50
2018-11-20T17:20:57.284Z,98.10
2018-11-20T17:23:45.441Z,98.60
2018-11-20T17:26:42.087Z,98.60
2018-11-20T17:29:32.183Z,99.00
2018-11-20T17:32:20.226Z,99.40
2018-11-20T17:35:06.139Z,99.60
2018-11-20T17:37:56.804Z,99.60
2018-11-20T17:40:43.217Z,99.70
2018-11-20T17:43:30.942Z,99.90
2018-11-20T17:46:33.832Z,99.90
2018-11-20T17:49:24.236Z,99.90
2018-11-20T17:52:10.253Z,99.90
2018-11-20T17:55:06.876Z,99.90
2018-11-20T17:58:06.262Z,99.90
2018-11-20T18:01:05.739Z,99.90
2018-11-20T18:03:46.276Z,99.90
2018-11-20T18:06:22.591Z,99.90
2018-11-20T18:09:19.168Z,99.90
2018-11-20T18:12:05.457Z,99.90
2018-11-20T18:14:47.940Z,99.90
2018-11-20T18:17:32.389Z,99.90
2018-11-20T18:20:19.854Z,99.90
2018-11-20T18:23:13.324Z,99.90
2018-11-20T18:26:00.782Z,99.90
2018-11-20T18:28:47.075Z,99.90
2018-11-20T18:31:40.354Z,99.90
2018-11-20T18:34:26.730Z,99.90
2018-11-20T18:37:14.015Z,99.90
2018-11-20T18:39:59.079Z,99.90
2018-11-20T18:42:43.320Z,99.90
2018-11-20T18:45:36.852Z,99.90
2018-11-20T18:48:22.949Z,99.90
2018-11-20T18:51:09.104Z,99.90
2018-11-20T18:53:55.143Z,99.90
2018-11-20T18:56:41.107Z,99.90
2018-11-20T18:59:40.696Z,99.90
2018-11-20T19:02:21.831Z,99.90
2018-11-20T19:05:24.682Z,99.90
2018-11-20T19:08:10.156Z,99.90
2018-11-20T19:10:56.136Z,99.90
2018-11-20T19:13:43.682Z,99.90
2018-11-20T19:16:37.443Z,99.90
2018-11-20T19:19:32.024Z,99.90
2018-11-20T19:22:34.878Z,99.90
2018-11-20T19:25:21.053Z,99.90
2018-11-20T19:28:17.754Z,99.90
2018-11-20T19:31:03.223Z,99.90
2018-11-20T19:33:50.817Z,99.90
2018-11-20T19:36:32.926Z,99.90
2018-11-20T19:39:19.028Z,99.90
2018-11-20T19:42:05.532Z,99.90
2018-11-20T19:44:51.920Z,99.90
2018-11-20T19:47:38.033Z,99.90
2018-11-20T19:50:46.472Z,99.90
2018-11-20T19:53:32.931Z,99.90
2018-11-20T19:56:32.733Z,99.90
2018-11-20T19:59:25.649Z,99.90
2018-11-20T20:02:13.071Z,99.90
2018-11-20T20:05:06.744Z,99.90
2018-11-20T20:08:03.164Z,99.90
2018-11-20T20:10:49.339Z,99.90
2018-11-20T20:13:36.792Z,99.90
2018-11-20T20:16:15.538Z,99.90
2018-11-20T20:19:01.924Z,99.90
2018-11-20T20:21:48.145Z,99.90
2018-11-20T20:24:35.610Z,99.90
2018-11-20T20:27:29.095Z,99.90
2018-11-20T20:30:31.748Z,99.90
2018-11-20T20:33:17.736Z,99.90
2018-11-20T20:36:14.096Z,99.90
2018-11-20T20:39:10.671Z,99.90
2018-11-20T20:41:56.642Z,99.90
2018-11-20T20:44:53.947Z,99.90
2018-11-20T20:47:40.000Z,99.90
2018-11-20T20:50:33.448Z,99.90
2018-11-20T20:53:33.034Z,99.90
2018-11-20T20:56:19.058Z,99.90
2018-11-20T20:59:04.331Z,99.90
2018-11-20T21:01:50.405Z,99.90
2018-11-20T21:04:37.628Z,99.90
2018-11-20T21:07:25.179Z,99.90
2018-11-20T21:10:11.325Z,99.90
2018-11-20T21:12:57.533Z,99.90
2018-11-20T21:15:43.776Z,99.90
2018-11-20T21:18:46.264Z,99.90
2018-11-20T21:21:48.505Z,99.90
2018-11-20T21:24:34.804Z,99.90
2018-11-20T21:27:19.649Z,99.90
2018-11-20T21:30:13.210Z,99.90
2018-11-20T21:33:06.933Z,99.90
2018-11-20T21:35:52.857Z,99.90
2018-11-20T21:38:35.811Z,99.90
2018-11-20T21:41:41.508Z,99.90
2018-11-20T21:44:38.160Z,99.90
2018-11-20T21:47:13.894Z,99.90
2018-11-20T21:50:01.393Z,99.90
2018-11-20T21:52:47.200Z,99.90
2018-11-20T21:55:33.205Z,99.90
2018-11-20T21:58:13.756Z,99.90
2018-11-20T22:01:03.217Z,99.90
2018-11-20T22:03:49.769Z,99.90
2018-11-20T22:06:36.214Z,99.90
2018-11-20T22:09:41.890Z,99.90
2018-11-20T22:12:27.856Z,99.90
2018-11-20T22:15:33.559Z,99.90
2018-11-20T22:18:19.848Z,99.90
2018-11-20T22:21:22.879Z,99.90
2018-11-20T22:24:22.467Z,99.90
2018-11-20T22:27:25.220Z,99.90
2018-11-20T22:30:15.642Z,99.90
2018-11-20T22:33:04.161Z,99.90
2018-11-20T22:35:50.520Z,99.90
2018-11-20T22:38:40.921Z,99.90
2018-11-20T22:41:19.350Z,99.90
2018-11-20T22:44:18.895Z,99.90
2018-11-20T22:47:07.656Z,99.90
2018-11-20T22:49:50.242Z,99.90
2018-11-20T22:52:46.788Z,99.90
2018-11-20T22:55:43.283Z,99.90
2018-11-20T22:58:29.713Z,99.90
2018-11-20T23:01:14.675Z,99.90
2018-11-20T23:04:00.856Z,99.90
2018-11-20T23:06:53.273Z,99.90
2018-11-20T23:09:21.559Z,99.90
2018-11-20T23:11:49.840Z,99.90
2018-11-20T23:14:18.164Z,99.90
2018-11-20T23:16:46.463Z,99.90
2018-11-20T23:19:14.732Z,99.90
2018-11-20T23:21:43.035Z,99.90
2018-11-20T23:24:13.942Z,99.90
2018-11-20T23:26:42.230Z,99.90
2018-11-20T23:29:10.499Z,99.90
2018-11-20T23:31:38.794Z,99.90
2018-11-20T23:34:07.103Z,99.90
2018-11-20T23:36:35.860Z,99.90
2018-11-20T23:39:05.815Z,99.90
2018-11-20T23:41:34.087Z,99.90
2018-11-20T23:44:02.632Z,99.90
2018-11-20T23:46:30.965Z,99.90
2018-11-20T23:48:59.378Z,99.90
2018-11-20T23:51:27.654Z,99.90
2018-11-20T23:53:56.305Z,99.90
2018-11-20T23:56:24.782Z,99.90
2018-11-20T23:58:53.378Z,99.90
